Time;durP1;ratioP1;P1;durP2;ratioP2;P2;SDS_P1;SDS_P2;PMS_P1;PMS_P2;Temp;Humidity;BMP_temperature;BMP_pressure;BME280_temperature;BME280_humidity;BME280_pressure;Samples;Min_cycle;Max_cycle;Signal;HPM_P1;HPM_P2
2022/04/29 00:00:07;;;;;;;1.90;1.47;;;18.90;51.00;;;;;;4959894;28;20208;-92
2022/04/29 00:02:34;;;;;;;1.53;1.37;;;18.90;51.00;;;;;;4957142;28;20635;-91
2022/04/29 00:05:01;;;;;;;1.37;1.27;;;18.90;51.00;;;;;;4957239;28;20221;-92
2022/04/29 00:07:27;;;;;;;1.60;1.50;;;18.90;51.00;;;;;;4958335;28;20200;-92
2022/04/29 00:09:52;;;;;;;1.53;1.30;;;18.90;51.00;;;;;;4973136;28;20167;-92
2022/04/29 00:12:19;;;;;;;2.30;1.50;;;18.80;51.00;;;;;;4959061;28;20241;-91
2022/04/29 00:14:46;;;;;;;1.53;1.30;;;18.90;51.00;;;;;;4959900;28;20183;-92
2022/04/29 00:17:12;;;;;;;2.00;1.40;;;18.80;50.90;;;;;;4959627;28;20446;-92
2022/04/29 00:19:38;;;;;;;1.43;1.20;;;18.80;51.00;;;;;;4960228;28;20576;-92
2022/04/29 00:22:04;;;;;;;1.90;1.57;;;18.80;50.90;;;;;;4959546;28;20191;-91
2022/04/29 00:24:30;;;;;;;1.83;1.70;;;18.80;50.90;;;;;;4960800;28;20183;-92
2022/04/29 00:26:58;;;;;;;1.97;1.70;;;18.80;50.90;;;;;;4960417;28;20270;-92
2022/04/29 00:29:24;;;;;;;1.90;1.70;;;18.70;50.90;;;;;;4961093;28;20177;-93
2022/04/29 00:31:50;;;;;;;2.37;1.53;;;18.70;50.90;;;;;;4960549;28;20183;-92
2022/04/29 00:34:17;;;;;;;2.17;1.73;;;18.70;50.90;;;;;;4960603;28;20190;-92
2022/04/29 00:36:43;;;;;;;2.43;1.53;;;18.70;50.90;;;;;;4960384;28;20171;-92
2022/04/29 00:39:10;;;;;;;2.33;1.80;;;18.60;50.80;;;;;;4960268;28;20412;-92
2022/04/29 00:41:35;;;;;;;2.00;1.77;;;18.60;50.90;;;;;;4961106;28;20660;-92
2022/04/29 00:44:08;;;;;;;1.80;1.50;;;18.70;50.90;;;;;;4959018;28;20261;-92
2022/04/29 00:46:39;;;;;;;2.40;1.67;;;18.60;50.80;;;;;;4959623;28;20208;-92
2022/04/29 00:49:06;;;;;;;2.10;1.57;;;18.60;50.80;;;;;;4959730;28;20177;-92
2022/04/29 00:51:33;;;;;;;1.93;1.60;;;18.60;50.90;;;;;;4959750;28;20250;-92
2022/04/29 00:54:01;;;;;;;1.83;1.60;;;18.60;50.80;;;;;;4959607;28;20184;-92
2022/04/29 00:56:39;;;;;;;2.13;1.60;;;18.60;50.80;;;;;;4959447;28;20175;-92
2022/04/29 00:59:33;;;;;;;1.60;1.43;;;18.60;50.80;;;;;;4959929;28;20174;-92
2022/04/29 01:02:03;;;;;;;1.90;1.53;;;18.60;50.90;;;;;;4959896;28;20218;-92
2022/04/29 01:04:37;;;;;;;1.57;1.47;;;18.60;50.90;;;;;;4959733;28;20183;-92
2022/04/29 01:07:03;;;;;;;1.43;1.30;;;18.60;50.90;;;;;;4960346;28;20574;-92
2022/04/29 01:09:29;;;;;;;1.50;1.40;;;18.50;50.80;;;;;;4959412;28;20174;-92
2022/04/29 01:11:56;;;;;;;1.97;1.50;;;18.50;50.80;;;;;;4960683;28;20170;-92
2022/04/29 01:14:24;;;;;;;2.13;1.50;;;18.50;50.80;;;;;;4959078;28;20303;-92
2022/04/29 01:16:50;;;;;;;1.80;1.60;;;18.50;50.80;;;;;;4960032;28;20186;-92
2022/04/29 01:19:16;;;;;;;1.97;1.60;;;18.50;50.80;;;;;;4959244;28;20271;-92
2022/04/29 01:21:42;;;;;;;1.40;1.30;;;18.50;50.80;;;;;;4960250;28;20175;-92
2022/04/29 01:24:08;;;;;;;1.87;1.67;;;18.50;50.80;;;;;;4960488;28;20467;-92
2022/04/29 01:26:34;;;;;;;1.67;1.57;;;18.50;50.80;;;;;;4959223;28;20550;-92
2022/04/29 01:29:01;;;;;;;1.87;1.60;;;18.50;50.80;;;;;;4958705;28;20175;-92
2022/04/29 01:31:29;;;;;;;1.63;1.50;;;18.40;50.80;;;;;;4958837;28;20183;-92
2022/04/29 01:33:56;;;;;;;3.57;1.60;;;18.40;50.80;;;;;;4959051;28;20175;-93
2022/04/29 01:36:22;;;;;;;2.07;1.50;;;18.40;50.70;;;;;;4977237;28;20182;-92
2022/04/29 01:38:48;;;;;;;2.47;1.50;;;18.40;50.70;;;;;;4976806;28;20187;-92
2022/04/29 01:41:13;;;;;;;2.53;1.63;;;18.40;50.70;;;;;;4975704;28;20570;-92
2022/04/29 01:43:40;;;;;;;2.00;1.70;;;18.40;50.80;;;;;;4976173;28;20261;-91
2022/04/29 01:46:05;;;;;;;2.00;1.40;;;18.40;50.80;;;;;;4959343;28;20254;-92
2022/04/29 01:48:31;;;;;;;2.50;1.70;;;18.30;50.80;;;;;;4958990;28;20563;-92
2022/04/29 01:50:57;;;;;;;1.70;1.60;;;18.30;50.70;;;;;;4960071;28;20192;-92
2022/04/29 01:53:23;;;;;;;1.77;1.63;;;18.30;50.70;;;;;;4975870;28;20435;-92
2022/04/29 01:55:49;;;;;;;2.80;1.73;;;18.30;50.80;;;;;;4959332;28;20577;-92
2022/04/29 01:58:14;;;;;;;1.97;1.60;;;18.30;50.70;;;;;;4959613;28;20182;-91
2022/04/29 02:00:40;;;;;;;2.57;1.53;;;18.30;50.70;;;;;;4975570;28;20193;-92
2022/04/29 02:03:06;;;;;;;2.10;1.87;;;18.30;50.80;;;;;;4974358;28;20182;-92
2022/04/29 02:05:33;;;;;;;2.27;1.60;;;18.20;50.70;;;;;;4958780;28;20679;-92
2022/04/29 02:08:00;;;;;;;1.73;1.53;;;18.20;50.70;;;;;;4959753;28;20204;-92
2022/04/29 02:10:26;;;;;;;1.80;1.60;;;18.20;50.70;;;;;;4958994;28;20190;-93
2022/04/29 02:12:52;;;;;;;2.33;1.70;;;18.20;50.70;;;;;;4959746;28;20575;-92
2022/04/29 02:15:20;;;;;;;2.03;1.63;;;18.20;50.70;;;;;;4959335;28;20183;-92
2022/04/29 02:17:46;;;;;;;2.70;1.50;;;18.20;50.70;;;;;;4959286;28;20181;-93
2022/04/29 02:20:12;;;;;;;2.17;1.60;;;18.20;50.70;;;;;;4959154;28;20182;-92
2022/04/29 02:22:39;;;;;;;1.90;1.70;;;18.20;50.70;;;;;;4959872;28;20184;-92
2022/04/29 02:25:05;;;;;;;2.07;1.50;;;18.10;50.70;;;;;;4975645;28;20479;-92
2022/04/29 02:27:31;;;;;;;2.23;1.60;;;18.10;50.70;;;;;;4959330;28;20177;-92
2022/04/29 02:29:56;;;;;;;2.17;1.60;;;18.10;50.70;;;;;;4959558;28;20181;-92
2022/04/29 02:32:22;;;;;;;2.60;1.63;;;18.10;50.60;;;;;;4959565;28;20184;-92
2022/04/29 02:34:48;;;;;;;2.03;1.67;;;18.10;50.60;;;;;;4959826;28;20201;-92
2022/04/29 02:37:14;;;;;;;1.90;1.70;;;18.10;50.70;;;;;;4959337;28;20204;-92
2022/04/29 02:39:40;;;;;;;1.63;1.53;;;18.10;50.60;;;;;;4960154;28;20189;-92
2022/04/29 02:42:07;;;;;;;1.70;1.57;;;18.10;50.60;;;;;;4979204;28;20462;-92
2022/04/29 02:44:33;;;;;;;2.23;1.70;;;18.10;50.60;;;;;;4963186;28;20646;-93
2022/04/29 02:47:08;;;;;;;1.83;1.63;;;18.00;50.60;;;;;;4962809;28;20190;-92
2022/04/29 02:49:44;;;;;;;1.90;1.50;;;18.00;50.60;;;;;;4962393;28;20311;-93
2022/04/29 02:52:12;;;;;;;2.53;1.70;;;18.00;50.60;;;;;;4962596;28;20464;-92
2022/04/29 02:54:38;;;;;;;2.43;1.80;;;18.00;50.60;;;;;;4961988;28;20192;-92
2022/04/29 02:57:05;;;;;;;1.50;1.33;;;18.00;50.60;;;;;;4962115;28;20197;-93
2022/04/29 02:59:31;;;;;;;1.70;1.50;;;18.00;50.60;;;;;;4962556;28;20651;-93
2022/04/29 03:01:57;;;;;;;2.17;1.63;;;18.00;50.60;;;;;;4962361;28;20328;-92
2022/04/29 03:04:23;;;;;;;1.70;1.40;;;18.00;50.60;;;;;;4961620;28;20192;-92
2022/04/29 03:06:48;;;;;;;1.80;1.70;;;18.00;50.60;;;;;;4961933;28;20200;-93
2022/04/29 03:09:14;;;;;;;1.83;1.60;;;17.90;50.60;;;;;;4961504;28;20174;-92
2022/04/29 03:11:40;;;;;;;1.40;1.30;;;17.90;50.60;;;;;;4961851;28;20174;-93
2022/04/29 03:14:06;;;;;;;1.90;1.70;;;17.90;50.60;;;;;;4961853;28;20456;-92
2022/04/29 03:16:32;;;;;;;2.03;1.60;;;17.90;50.60;;;;;;4961875;28;20233;-93
2022/04/29 03:18:59;;;;;;;2.33;1.70;;;17.90;50.60;;;;;;4961834;28;20222;-92
2022/04/29 03:21:26;;;;;;;1.60;1.50;;;17.90;50.60;;;;;;4961094;28;20215;-92
2022/04/29 03:23:51;;;;;;;3.43;1.80;;;17.90;50.60;;;;;;4961606;28;20463;-93
2022/04/29 03:26:17;;;;;;;1.83;1.60;;;17.80;50.50;;;;;;4960773;28;20693;-93
2022/04/29 03:28:43;;;;;;;2.00;1.77;;;17.80;50.50;;;;;;4961481;28;20181;-92
2022/04/29 03:31:09;;;;;;;2.37;1.77;;;17.80;50.50;;;;;;4960593;28;20188;-93
2022/04/29 03:33:35;;;;;;;2.37;1.70;;;17.80;50.50;;;;;;4961495;28;20188;-92
2022/04/29 03:36:00;;;;;;;1.60;1.50;;;17.80;50.50;;;;;;4960408;28;20197;-92
2022/04/29 03:38:26;;;;;;;1.57;1.47;;;17.80;50.50;;;;;;4960803;28;20590;-93
2022/04/29 03:40:53;;;;;;;1.83;1.30;;;17.80;50.50;;;;;;4960846;28;20184;-91
2022/04/29 03:43:19;;;;;;;2.57;1.50;;;17.80;50.50;;;;;;4960101;28;20337;-92
2022/04/29 03:45:45;;;;;;;2.10;1.57;;;17.80;50.50;;;;;;4976982;28;20205;-92
2022/04/29 03:48:11;;;;;;;2.23;1.63;;;17.80;50.60;;;;;;4960579;28;20184;-92
2022/04/29 03:50:38;;;;;;;1.40;1.30;;;17.80;50.50;;;;;;4959808;28;20461;-91
2022/04/29 03:53:05;;;;;;;1.93;1.60;;;17.70;50.50;;;;;;4960980;28;20355;-91
2022/04/29 03:55:34;;;;;;;1.70;1.40;;;17.70;50.50;;;;;;4960815;28;20529;-90
2022/04/29 03:58:02;;;;;;;1.70;1.60;;;17.70;50.50;;;;;;4960614;28;20243;-90
2022/04/29 04:00:31;;;;;;;2.00;1.50;;;17.70;50.50;;;;;;4959821;28;20179;-90
2022/04/29 04:02:57;;;;;;;2.60;1.57;;;17.70;50.60;;;;;;4960009;28;20280;-90
2022/04/29 04:05:23;;;;;;;1.50;1.40;;;17.70;50.50;;;;;;4960035;28;20205;-91
2022/04/29 04:07:50;;;;;;;1.63;1.40;;;17.70;50.50;;;;;;4959884;28;20222;-90
2022/04/29 04:10:15;;;;;;;2.10;1.43;;;17.70;50.50;;;;;;4959737;28;20182;-91
2022/04/29 04:12:47;;;;;;;2.60;1.47;;;17.60;50.50;;;;;;4960000;28;20573;-91
2022/04/29 04:15:16;;;;;;;1.47;1.30;;;17.60;50.50;;;;;;4959756;28;20181;-91
2022/04/29 04:17:42;;;;;;;1.83;1.60;;;17.60;50.50;;;;;;4960023;28;20178;-91
2022/04/29 04:20:10;;;;;;;2.30;1.70;;;17.60;50.50;;;;;;4959050;28;20236;-90
2022/04/29 04:22:36;;;;;;;2.03;1.67;;;17.60;50.50;;;;;;4959930;28;20177;-93
2022/04/29 04:25:07;;;;;;;1.60;1.47;;;17.60;50.50;;;;;;4959010;28;20208;-93
2022/04/29 04:27:33;;;;;;;2.07;1.70;;;17.60;50.50;;;;;;4975039;28;20633;-92
2022/04/29 04:30:00;;;;;;;1.70;1.60;;;17.50;50.40;;;;;;4958980;28;20174;-93
2022/04/29 04:32:27;;;;;;;2.17;1.50;;;17.50;50.40;;;;;;4959572;28;20173;-92
2022/04/29 04:35:00;;;;;;;1.70;1.40;;;17.50;50.40;;;;;;4958295;28;20210;-92
2022/04/29 04:37:27;;;;;;;2.27;1.40;;;17.50;50.40;;;;;;4959115;28;20431;-93
2022/04/29 04:39:54;;;;;;;2.20;1.43;;;17.50;50.40;;;;;;4958428;28;20187;-92
2022/04/29 04:42:23;;;;;;;1.97;1.50;;;17.50;50.40;;;;;;4957898;28;20182;-92
2022/04/29 04:44:50;;;;;;;1.77;1.40;;;17.50;50.40;;;;;;4957791;28;20410;-92
2022/04/29 04:47:17;;;;;;;1.63;1.30;;;17.60;50.40;;;;;;4957084;28;20178;-92
2022/04/29 04:49:43;;;;;;;2.43;1.70;;;17.60;50.40;;;;;;4956705;28;20182;-93
2022/04/29 04:52:08;;;;;;;3.63;1.50;;;17.60;50.40;;;;;;4957049;28;20171;-92
2022/04/29 04:54:36;;;;;;;1.67;1.50;;;17.50;50.30;;;;;;4956873;28;20177;-93
2022/04/29 04:57:03;;;;;;;1.73;1.30;;;17.50;50.40;;;;;;4955524;28;20182;-92
2022/04/29 04:59:28;;;;;;;2.27;1.43;;;17.60;50.30;;;;;;4955044;28;20173;-93
2022/04/29 05:01:54;;;;;;;1.83;1.50;;;17.60;50.40;;;;;;4953866;28;20170;-93
2022/04/29 05:04:21;;;;;;;1.40;1.30;;;17.60;50.40;;;;;;4956650;28;20501;-93
2022/04/29 05:06:46;;;;;;;1.93;1.30;;;17.60;50.40;;;;;;4956211;28;20202;-93
2022/04/29 05:09:12;;;;;;;1.47;1.20;;;17.60;50.40;;;;;;4955538;28;20196;-93
2022/04/29 05:11:38;;;;;;;1.40;1.30;;;17.60;50.50;;;;;;4954716;28;20207;-92
2022/04/29 05:14:04;;;;;;;1.87;1.33;;;17.60;50.60;;;;;;4954684;28;20227;-92
2022/04/29 05:16:30;;;;;;;1.97;1.30;;;17.60;50.60;;;;;;4970924;28;20185;-93
2022/04/29 05:18:56;;;;;;;3.20;1.70;;;17.60;50.70;;;;;;4954498;28;20182;-92
2022/04/29 05:21:21;;;;;;;2.07;1.50;;;17.60;50.70;;;;;;4969070;28;20292;-93
2022/04/29 05:23:47;;;;;;;3.40;1.60;;;17.60;50.80;;;;;;4954058;28;20204;-92
2022/04/29 05:26:13;;;;;;;1.97;1.30;;;17.70;50.90;;;;;;4954602;28;20245;-93
2022/04/29 05:28:39;;;;;;;1.93;1.50;;;17.70;50.90;;;;;;4954567;28;20174;-93
2022/04/29 05:31:04;;;;;;;1.97;1.27;;;17.70;51.00;;;;;;4952446;28;20188;-93
2022/04/29 05:33:34;;;;;;;4.37;1.53;;;17.70;51.00;;;;;;4970055;28;20186;-93
2022/04/29 05:36:03;;;;;;;2.53;1.60;;;17.70;51.00;;;;;;4953622;28;20203;-92
2022/04/29 05:42:14;;;;;;;2.23;1.30;;;17.70;51.10;;;;;;4952406;28;20428;-93
2022/04/29 05:43:59;;;;;;;3.07;1.50;;;17.70;51.20;;;;;;4969011;28;20275;-92
2022/04/29 05:46:25;;;;;;;2.77;1.60;;;17.70;51.20;;;;;;4951315;28;20213;-93
2022/04/29 05:48:51;;;;;;;3.37;1.57;;;17.70;51.20;;;;;;4967005;28;20190;-93
2022/04/29 05:51:16;;;;;;;2.33;1.60;;;17.70;51.20;;;;;;4968367;28;20428;-93
2022/04/29 05:53:43;;;;;;;3.90;1.90;;;17.80;51.30;;;;;;4952979;28;20240;-93
2022/04/29 05:56:09;;;;;;;2.57;1.50;;;17.80;51.60;;;;;;4953385;28;20184;-93
2022/04/29 05:58:35;;;;;;;3.90;1.83;;;17.80;51.20;;;;;;4951451;28;20177;-93
2022/04/29 06:01:02;;;;;;;3.83;1.63;;;17.80;51.10;;;;;;4951686;28;20176;-91
2022/04/29 06:03:28;;;;;;;4.13;1.70;;;17.80;51.10;;;;;;4951194;28;20545;-91
2022/04/29 06:05:54;;;;;;;2.30;1.60;;;17.80;51.10;;;;;;4952526;28;20220;-91
2022/04/29 06:08:20;;;;;;;2.43;1.67;;;17.80;51.10;;;;;;4951774;28;20172;-91
2022/04/29 06:10:45;;;;;;;3.57;1.70;;;17.80;51.10;;;;;;4952876;28;20441;-91
2022/04/29 06:13:12;;;;;;;2.83;1.97;;;17.80;51.00;;;;;;4968165;28;20764;-91
2022/04/29 06:15:38;;;;;;;4.93;1.77;;;17.90;51.00;;;;;;4956338;28;20182;-90
2022/04/29 06:18:04;;;;;;;3.50;1.77;;;17.90;51.00;;;;;;4956156;28;20463;-90
2022/04/29 06:20:30;;;;;;;5.30;2.07;;;17.90;51.00;;;;;;4957900;28;20183;-91
2022/04/29 06:22:56;;;;;;;3.33;1.70;;;18.00;50.90;;;;;;4955816;28;20221;-90
2022/04/29 06:25:22;;;;;;;2.87;1.80;;;18.00;50.80;;;;;;4955384;28;20225;-90
2022/04/29 06:27:48;;;;;;;3.43;1.80;;;18.10;50.70;;;;;;4955570;28;20184;-91
2022/04/29 06:30:14;;;;;;;2.77;2.00;;;18.10;50.60;;;;;;4954953;28;20177;-91
2022/04/29 06:32:40;;;;;;;4.00;2.23;;;18.20;50.60;;;;;;4955484;28;20178;-91
2022/04/29 06:35:07;;;;;;;4.87;1.90;;;18.30;50.50;;;;;;4956025;28;20585;-91
2022/04/29 06:37:36;;;;;;;4.23;2.00;;;18.30;50.50;;;;;;4957210;28;20237;-92
2022/04/29 06:40:03;;;;;;;4.43;1.73;;;18.30;50.30;;;;;;4955742;28;20178;-92
2022/04/29 06:42:29;;;;;;;4.93;2.13;;;18.40;50.20;;;;;;4956618;28;20198;-92
2022/04/29 06:44:56;;;;;;;3.57;2.17;;;18.40;50.10;;;;;;4956682;28;20328;-92
2022/04/29 06:47:21;;;;;;;5.33;1.90;;;18.40;50.00;;;;;;4956671;28;20176;-92
2022/04/29 06:49:47;;;;;;;4.97;2.20;;;18.40;50.00;;;;;;4971195;28;20179;-91
2022/04/29 06:52:13;;;;;;;5.10;2.00;;;18.50;50.00;;;;;;4955756;28;20463;-92
2022/04/29 06:54:39;;;;;;;4.10;2.13;;;18.50;49.90;;;;;;4954867;28;20170;-92
2022/04/29 06:57:05;;;;;;;3.70;2.27;;;18.60;49.80;;;;;;4956900;28;20198;-92
2022/04/29 06:59:31;;;;;;;3.40;2.20;;;18.60;49.70;;;;;;4956144;28;20277;-92
2022/04/29 07:01:58;;;;;;;3.30;2.30;;;18.60;49.70;;;;;;4956607;28;20171;-91
2022/04/29 07:04:28;;;;;;;4.50;2.10;;;18.60;49.60;;;;;;4953739;28;20184;-91
2022/04/29 07:06:56;;;;;;;3.90;2.17;;;18.70;49.60;;;;;;4954820;28;20295;-91
2022/04/29 07:09:23;;;;;;;3.73;2.07;;;18.60;49.60;;;;;;4970629;28;20188;-91
2022/04/29 07:11:49;;;;;;;5.50;2.47;;;18.60;49.70;;;;;;4954034;28;20671;-91
2022/04/29 07:14:15;;;;;;;4.57;2.30;;;18.50;49.70;;;;;;4955889;28;20275;-91
2022/04/29 07:16:41;;;;;;;3.97;2.07;;;18.50;49.80;;;;;;4956651;28;20182;-90
2022/04/29 07:19:07;;;;;;;4.00;2.07;;;18.50;49.80;;;;;;4955370;28;20181;-91
2022/04/29 07:21:32;;;;;;;4.73;2.20;;;18.50;49.80;;;;;;4955465;28;20483;-91
2022/04/29 07:23:59;;;;;;;3.87;2.10;;;18.50;49.90;;;;;;4956006;28;20573;-91
2022/04/29 07:26:25;;;;;;;4.03;2.30;;;18.50;49.80;;;;;;4955243;28;20206;-90
2022/04/29 07:28:50;;;;;;;4.43;2.20;;;18.60;49.80;;;;;;4955788;28;20220;-91
2022/04/29 07:31:16;;;;;;;5.27;2.07;;;18.60;49.70;;;;;;4954282;28;20177;-91
2022/04/29 07:33:42;;;;;;;4.47;2.27;;;18.70;49.70;;;;;;4954226;28;20178;-91
2022/04/29 07:41:45;;;;;;;3.50;2.33;;;18.70;49.60;;;;;;4971609;28;20221;-91
2022/04/29 07:44:15;;;;;;;4.23;2.40;;;18.70;49.60;;;;;;4955526;28;20177;-91
2022/04/29 07:46:43;;;;;;;3.90;2.33;;;19.00;49.30;;;;;;4955905;28;20452;-91
2022/04/29 07:49:10;;;;;;;4.97;2.43;;;19.20;48.80;;;;;;4955405;28;20453;-91
2022/04/29 07:51:36;;;;;;;3.87;2.40;;;19.50;48.40;;;;;;4955020;28;20231;-93
2022/04/29 07:54:03;;;;;;;3.20;2.10;;;19.70;48.30;;;;;;4971319;28;20171;-93
2022/04/29 07:56:28;;;;;;;4.13;2.53;;;19.80;48.00;;;;;;4954057;28;20186;-91
2022/04/29 07:58:55;;;;;;;4.30;2.40;;;19.90;47.80;;;;;;4954757;28;20188;-91
2022/04/29 08:01:21;;;;;;;6.17;2.60;;;20.00;47.90;;;;;;4954410;28;20205;-90
2022/04/29 08:03:47;;;;;;;4.07;2.50;;;20.10;47.80;;;;;;4954388;28;20544;-91
2022/04/29 08:06:13;;;;;;;4.30;2.40;;;20.10;47.50;;;;;;4952929;28;20279;-91
2022/04/29 08:08:39;;;;;;;4.13;2.50;;;20.30;47.60;;;;;;4953574;28;20258;-91
2022/04/29 08:11:05;;;;;;;4.33;2.43;;;20.10;47.60;;;;;;4953494;28;20526;-91
2022/04/29 08:13:31;;;;;;;5.03;2.70;;;20.10;47.70;;;;;;4954254;28;20175;-91
2022/04/29 08:16:00;;;;;;;4.47;2.50;;;20.10;47.70;;;;;;4953358;28;20239;-91
2022/04/29 08:18:28;;;;;;;4.20;2.60;;;19.90;47.80;;;;;;4954467;28;20431;-90
2022/04/29 08:20:53;;;;;;;4.03;2.40;;;19.80;48.10;;;;;;4954085;28;20186;-90
2022/04/29 08:23:19;;;;;;;5.60;2.13;;;19.70;48.30;;;;;;4953919;28;20179;-90
2022/04/29 08:25:45;;;;;;;5.53;2.40;;;19.60;48.50;;;;;;4971996;28;20211;-90
2022/04/29 08:28:11;;;;;;;4.27;2.60;;;19.50;48.60;;;;;;4970349;28;20171;-90
2022/04/29 08:30:37;;;;;;;4.23;2.40;;;19.50;48.60;;;;;;4971726;28;20310;-90
2022/04/29 08:33:03;;;;;;;4.77;2.30;;;19.50;48.80;;;;;;4969015;28;20175;-90
2022/04/29 08:35:30;;;;;;;3.77;2.47;;;19.40;48.80;;;;;;4970485;28;20261;-91
2022/04/29 08:37:57;;;;;;;4.70;2.70;;;19.40;48.90;;;;;;4953770;28;20187;-90
2022/04/29 08:40:24;;;;;;;4.47;2.33;;;19.40;48.90;;;;;;4953640;28;20249;-91
2022/04/29 08:42:50;;;;;;;3.80;2.70;;;19.30;48.90;;;;;;4952972;28;20575;-90
2022/04/29 08:45:17;;;;;;;5.27;2.43;;;19.30;49.00;;;;;;4953365;28;20565;-91
2022/04/29 08:47:44;;;;;;;3.17;2.07;;;19.30;49.10;;;;;;4952399;28;20206;-90
2022/04/29 08:50:30;;;;;;;6.13;2.50;;;19.30;49.20;;;;;;4970226;28;20357;-91
2022/04/29 08:52:57;;;;;;;4.50;2.23;;;19.30;49.30;;;;;;4952783;28;20474;-91
2022/04/29 09:00:52;;;;;;;5.07;2.53;;;19.20;49.50;;;;;;4968901;28;20478;-89
2022/04/29 09:03:23;;;;;;;3.13;1.90;;;19.20;49.60;;;;;;4954552;28;20182;-89
2022/04/29 09:05:50;;;;;;;3.87;2.30;;;19.20;49.60;;;;;;4969409;28;20634;-90
2022/04/29 09:08:21;;;;;;;4.40;2.60;;;19.20;50.00;;;;;;4951678;28;20240;-90
2022/04/29 09:10:53;;;;;;;3.13;2.30;;;19.20;49.60;;;;;;4953449;28;20560;-89
2022/04/29 09:13:22;;;;;;;2.43;2.00;;;19.20;49.70;;;;;;4951814;28;20181;-89
2022/04/29 09:16:00;;;;;;;3.07;2.13;;;19.20;49.70;;;;;;4952575;28;20181;-89
2022/04/29 09:18:39;;;;;;;3.93;2.47;;;19.20;49.70;;;;;;4952503;28;20186;-89
2022/04/29 09:21:11;;;;;;;4.73;2.90;;;19.20;49.70;;;;;;4952391;28;20177;-89
2022/04/29 09:23:42;;;;;;;4.37;2.50;;;19.20;49.70;;;;;;4953889;28;20217;-89
2022/04/29 09:26:38;;;;;;;4.40;2.30;;;19.20;49.70;;;;;;4951106;28;20697;-89
2022/04/29 09:29:14;;;;;;;6.10;2.43;;;19.20;49.70;;;;;;4952219;28;20190;-90
2022/04/29 09:31:56;;;;;;;3.80;2.20;;;19.30;49.70;;;;;;4952511;28;20442;-89
2022/04/29 09:34:23;;;;;;;3.80;2.27;;;19.30;49.50;;;;;;4952338;28;20197;-89
2022/04/29 09:36:50;;;;;;;3.43;2.13;;;19.40;49.50;;;;;;4952413;28;20427;-89
2022/04/29 09:39:32;;;;;;;3.90;2.30;;;19.40;49.50;;;;;;4951909;28;20178;-89
2022/04/29 09:41:59;;;;;;;4.23;2.30;;;19.40;49.50;;;;;;4951640;28;20206;-89
2022/04/29 09:44:30;;;;;;;4.43;2.40;;;19.40;49.60;;;;;;4951701;28;20179;-89
2022/04/29 09:47:08;;;;;;;2.77;1.97;;;19.40;49.50;;;;;;4968373;28;20237;-89
2022/04/29 09:49:34;;;;;;;3.27;2.17;;;19.40;50.00;;;;;;4951560;28;20293;-89
2022/04/29 09:52:00;;;;;;;4.33;2.23;;;19.40;49.60;;;;;;4951893;28;20628;-89
2022/04/29 09:54:31;;;;;;;4.07;2.43;;;19.40;49.60;;;;;;4952351;28;20179;-89
2022/04/29 09:57:12;;;;;;;3.13;2.20;;;19.40;49.80;;;;;;4967813;28;20833;-90
2022/04/29 09:59:37;;;;;;;2.27;1.83;;;19.40;49.70;;;;;;4952503;28;20553;-90
2022/04/29 10:02:04;;;;;;;3.60;2.20;;;19.30;49.70;;;;;;4950411;28;20186;-90
2022/04/29 10:04:34;;;;;;;3.20;2.10;;;19.30;49.70;;;;;;4952441;28;20664;-90
2022/04/29 10:07:06;;;;;;;4.17;2.20;;;19.30;49.70;;;;;;4950881;28;20573;-89
2022/04/29 10:09:34;;;;;;;3.80;2.50;;;19.30;49.80;;;;;;4950574;28;20285;-91
2022/04/29 10:12:03;;;;;;;4.07;2.37;;;19.30;49.80;;;;;;4950167;28;20179;-90
2022/04/29 10:14:31;;;;;;;3.73;2.30;;;19.30;49.80;;;;;;4949978;28;20187;-90
2022/04/29 10:22:43;;;;;;;2.73;2.10;;;19.40;49.90;;;;;;4967394;28;20178;-90
2022/04/29 10:25:10;;;;;;;4.40;2.27;;;19.40;49.90;;;;;;4950612;28;20210;-90
2022/04/29 10:27:43;;;;;;;3.27;1.90;;;19.40;49.80;;;;;;4951168;28;20279;-90
2022/04/29 10:30:09;;;;;;;4.87;2.20;;;19.40;49.80;;;;;;4952337;28;20170;-90
2022/04/29 10:32:58;;;;;;;3.60;2.30;;;19.40;49.80;;;;;;4951934;28;20182;-90
2022/04/29 10:35:53;;;;;;;3.23;2.40;;;19.50;49.80;;;;;;4937432;28;20202;-90
2022/04/29 10:38:31;;;;;;;3.80;2.13;;;19.50;49.90;;;;;;4950204;28;20278;-91
2022/04/29 10:41:20;;;;;;;3.70;2.20;;;19.50;49.90;;;;;;4950466;28;20215;-90
2022/04/29 10:43:55;;;;;;;4.13;2.13;;;19.50;49.90;;;;;;4951275;28;20456;-89
2022/04/29 10:46:30;;;;;;;5.43;2.60;;;19.60;49.90;;;;;;4951779;28;20206;-89
2022/04/29 10:48:57;;;;;;;5.60;2.43;;;19.60;49.90;;;;;;4949712;28;20186;-89
2022/04/29 10:51:26;;;;;;;3.93;2.40;;;19.60;49.80;;;;;;4950352;28;20231;-88
2022/04/29 10:53:57;;;;;;;3.40;1.83;;;19.60;49.80;;;;;;4948007;28;20175;-88
2022/04/29 10:56:28;;;;;;;6.50;2.30;;;19.70;49.90;;;;;;4950233;28;20179;-89
2022/04/29 10:58:59;;;;;;;6.17;2.40;;;19.70;49.90;;;;;;4950329;28;20726;-89
2022/04/29 11:01:27;;;;;;;3.40;2.07;;;19.70;49.90;;;;;;4967421;28;20175;-88
2022/04/29 11:03:53;;;;;;;5.57;2.40;;;19.70;49.80;;;;;;4953692;28;20175;-89
2022/04/29 11:06:20;;;;;;;4.77;2.20;;;19.80;49.80;;;;;;4952019;28;20206;-89
2022/04/29 11:08:46;;;;;;;4.70;2.23;;;19.80;49.80;;;;;;4951936;28;20170;-90
2022/04/29 11:11:12;;;;;;;5.10;2.40;;;19.80;49.80;;;;;;4952771;28;20587;-89
2022/04/29 11:13:47;;;;;;;3.73;2.20;;;19.80;49.80;;;;;;4952836;28;20464;-89
2022/04/29 11:16:14;;;;;;;5.23;2.67;;;19.80;49.80;;;;;;4953926;28;20634;-90
2022/04/29 11:18:43;;;;;;;3.43;2.30;;;19.90;49.90;;;;;;4953387;28;20171;-90
2022/04/29 11:26:47;;;;;;;5.23;2.67;;;19.90;49.90;;;;;;4969485;28;20288;-90
2022/04/29 11:29:14;;;;;;;4.70;2.30;;;19.90;49.90;;;;;;4951165;28;20421;-90
2022/04/29 11:31:41;;;;;;;4.33;2.40;;;20.00;49.90;;;;;;4952398;28;20177;-90
2022/04/29 11:34:11;;;;;;;5.10;2.10;;;19.90;49.80;;;;;;4952172;28;20563;-90
2022/04/29 11:36:38;;;;;;;4.43;2.33;;;20.00;49.90;;;;;;4951672;28;20213;-90
2022/04/29 11:39:24;;;;;;;4.43;2.10;;;20.00;49.90;;;;;;4951721;28;20324;-91
2022/04/29 11:41:57;;;;;;;4.87;2.13;;;20.00;49.90;;;;;;4967678;28;20214;-90
2022/04/29 11:44:45;;;;;;;3.40;2.27;;;20.00;49.90;;;;;;4951723;28;20337;-90
2022/04/29 11:47:11;;;;;;;3.63;2.40;;;20.00;49.90;;;;;;4966981;28;20460;-90
2022/04/29 11:49:37;;;;;;;3.57;2.00;;;20.10;50.00;;;;;;4952387;28;20415;-90
2022/04/29 11:52:30;;;;;;;5.47;2.10;;;20.10;50.00;;;;;;4952533;28;20171;-90
2022/04/29 11:55:05;;;;;;;3.10;2.10;;;20.10;50.00;;;;;;4951648;28;20205;-90
2022/04/29 11:57:33;;;;;;;3.50;2.33;;;20.10;50.10;;;;;;4953564;28;20190;-90
2022/04/29 12:00:00;;;;;;;4.37;2.43;;;20.10;50.00;;;;;;4951974;28;20167;-90
2022/04/29 12:02:27;;;;;;;4.90;2.40;;;20.20;50.00;;;;;;4951933;28;20175;-90
2022/04/29 12:04:53;;;;;;;4.87;2.20;;;20.20;50.00;;;;;;4952382;28;20167;-90
2022/04/29 12:07:19;;;;;;;4.87;2.20;;;20.20;50.00;;;;;;4952826;28;20521;-90
2022/04/29 12:09:46;;;;;;;4.50;2.30;;;20.20;50.00;;;;;;4951820;28;20304;-90
2022/04/29 12:12:28;;;;;;;4.00;2.23;;;20.20;50.20;;;;;;4952203;28;20167;-90
2022/04/29 12:14:55;;;;;;;4.30;2.30;;;20.20;50.20;;;;;;4952225;28;20181;-90
2022/04/29 12:17:41;;;;;;;4.23;2.30;;;20.30;50.30;;;;;;4951314;28;20241;-90
2022/04/29 12:20:19;;;;;;;5.10;2.13;;;20.30;50.40;;;;;;4966860;28;20187;-90
2022/04/29 12:22:48;;;;;;;4.40;2.50;;;20.30;50.50;;;;;;4953395;28;20174;-91
2022/04/29 12:25:58;;;;;;;6.77;2.30;;;20.30;50.50;;;;;;4952412;28;20547;-91
2022/04/29 12:28:29;;;;;;;4.50;2.00;;;20.30;50.60;;;;;;4910427;28;20180;-92
2022/04/29 12:36:55;;;;;;;5.53;2.47;;;20.30;50.60;;;;;;4968656;28;20238;-91
2022/04/29 12:39:37;;;;;;;3.97;2.27;;;20.40;50.60;;;;;;4952260;28;20301;-90
2022/04/29 12:42:05;;;;;;;4.07;2.33;;;20.40;50.50;;;;;;4949400;28;20245;-91
2022/04/29 12:45:10;;;;;;;4.77;2.17;;;20.40;50.40;;;;;;4950771;28;20175;-91
2022/04/29 12:47:40;;;;;;;6.47;2.40;;;20.40;50.40;;;;;;4952348;28;20210;-90
2022/04/29 12:50:20;;;;;;;5.70;2.23;;;20.40;50.40;;;;;;4952229;28;20167;-90
2022/04/29 12:52:56;;;;;;;4.00;2.33;;;20.40;50.30;;;;;;4950210;28;20183;-91
2022/04/29 12:55:23;;;;;;;4.93;2.40;;;20.40;50.60;;;;;;4950312;28;20274;-92
2022/04/29 12:57:49;;;;;;;4.63;2.20;;;20.40;50.20;;;;;;4949008;28;20182;-90
2022/04/29 13:00:23;;;;;;;3.90;2.07;;;20.40;50.20;;;;;;4951692;28;20167;-89
2022/04/29 13:03:09;;;;;;;5.87;2.40;;;20.40;50.20;;;;;;4966541;28;20186;-90
2022/04/29 13:05:40;;;;;;;2.93;1.93;;;20.40;50.20;;;;;;4951197;28;20210;-90
2022/04/29 13:08:09;;;;;;;3.93;2.03;;;20.40;50.20;;;;;;4952381;28;20175;-89
2022/04/29 13:11:03;;;;;;;4.07;2.13;;;20.40;50.20;;;;;;4951540;28;20175;-89
2022/04/29 13:13:29;;;;;;;7.07;2.40;;;20.40;50.10;;;;;;4955090;28;20175;-91
2022/04/29 13:15:55;;;;;;;3.03;1.90;;;20.40;50.10;;;;;;4957272;28;20244;-90
2022/04/29 13:18:22;;;;;;;3.90;2.20;;;20.40;50.10;;;;;;4959246;28;20178;-91
2022/04/29 13:20:59;;;;;;;4.17;2.20;;;20.40;50.10;;;;;;4958965;28;20213;-90
2022/04/29 13:23:25;;;;;;;4.83;2.20;;;20.40;50.10;;;;;;4953604;28;20181;-90
2022/04/29 13:25:51;;;;;;;3.83;2.03;;;20.40;50.10;;;;;;4951204;28;20210;-90